sensor_id;sensor_type;location;lat;lon;timestamp;temperature;humidity
48264;DHT22;34086;51.076;13.722;2023-04-01T00:00:06;10.20;99.90
48264;DHT22;34086;51.076;13.722;2023-04-01T00:01:13;10.20;99.90
48264;DHT22;34086;51.076;13.722;2023-04-01T00:02:14;10.10;99.90
48264;DHT22;34086;51.076;13.722;2023-04-01T00:03:15;10.10;99.90
48264;DHT22;34086;51.076;13.722;2023-04-01T00:04:15;10.10;99.90
48264;DHT22;34086;51.076;13.722;2023-04-01T00:05:16;10.10;99.90
48264;DHT22;34086;51.076;13.722;2023-04-01T00:06:17;10.10;99.90
48264;DHT22;34086;51.076;13.722;2023-04-01T00:07:18;10.10;99.90
48264;DHT22;34086;51.076;13.722;2023-04-01T00:08:19;10.10;99.90
48264;DHT22;34086;51.076;13.722;2023-04-01T00:09:20;10.10;99.90
48264;DHT22;34086;51.076;13.722;2023-04-01T00:10:20;10.10;99.90
48264;DHT22;34086;51.076;13.722;2023-04-01T00:11:21;10.10;99.90
48264;DHT22;34086;51.076;13.722;2023-04-01T00:12:22;10.20;99.90
48264;DHT22;34086;51.076;13.722;2023-04-01T00:13:23;10.20;99.90
48264;DHT22;34086;51.076;13.722;2023-04-01T00:14:25;10.20;99.90
48264;DHT22;34086;51.076;13.722;2023-04-01T00:15:26;10.20;99.90
48264;DHT22;34086;51.076;13.722;2023-04-01T00:16:27;10.20;99.90
48264;DHT22;34086;51.076;13.722;2023-04-01T00:17:27;10.20;99.90
48264;DHT22;34086;51.076;13.722;2023-04-01T00:18:28;10.20;99.90
48264;DHT22;34086;51.076;13.722;2023-04-01T00:19:28;10.20;99.90
48264;DHT22;34086;51.076;13.722;2023-04-01T00:20:30;10.20;99.90
48264;DHT22;34086;51.076;13.722;2023-04-01T00:21:30;10.20;99.90
48264;DHT22;34086;51.076;13.722;2023-04-01T00:22:31;10.20;99.90
48264;DHT22;34086;51.076;13.722;2023-04-01T00:23:31;10.20;99.90
48264;DHT22;34086;51.076;13.722;2023-04-01T00:24:32;10.20;99.90
48264;DHT22;34086;51.076;13.722;2023-04-01T00:25:32;10.20;99.90
48264;DHT22;34086;51.076;13.722;2023-04-01T00:26:33;10.20;99.90
48264;DHT22;34086;51.076;13.722;2023-04-01T00:27:34;10.20;99.90
48264;DHT22;34086;51.076;13.722;2023-04-01T00:28:35;10.30;99.90
48264;DHT22;34086;51.076;13.722;2023-04-01T00:29:36;10.30;99.90
48264;DHT22;34086;51.076;13.722;2023-04-01T00:30:37;10.30;99.90
48264;DHT22;34086;51.076;13.722;2023-04-01T00:31:37;10.30;99.90
48264;DHT22;34086;51.076;13.722;2023-04-01T00:32:38;10.30;99.90
48264;DHT22;34086;51.076;13.722;2023-04-01T00:33:39;10.30;99.90
48264;DHT22;34086;51.076;13.722;2023-04-01T00:34:41;10.30;99.90
48264;DHT22;34086;51.076;13.722;2023-04-01T00:35:41;10.30;99.90
48264;DHT22;34086;51.076;13.722;2023-04-01T00:36:42;10.30;99.90
48264;DHT22;34086;51.076;13.722;2023-04-01T00:37:42;10.30;99.90
48264;DHT22;34086;51.076;13.722;2023-04-01T00:38:44;10.30;99.90
48264;DHT22;34086;51.076;13.722;2023-04-01T00:39:45;10.30;99.90
48264;DHT22;34086;51.076;13.722;2023-04-01T00:40:46;10.30;99.90
48264;DHT22;34086;51.076;13.722;2023-04-01T00:41:47;10.30;99.90
48264;DHT22;34086;51.076;13.722;2023-04-01T00:42:48;10.30;99.90
48264;DHT22;34086;51.076;13.722;2023-04-01T00:43:50;10.20;99.90
48264;DHT22;34086;51.076;13.722;2023-04-01T00:44:52;10.20;99.90
48264;DHT22;34086;51.076;13.722;2023-04-01T00:45:53;10.20;99.90
48264;DHT22;34086;51.076;13.722;2023-04-01T00:46:54;10.20;99.90
48264;DHT22;34086;51.076;13.722;2023-04-01T00:47:56;10.20;99.90
48264;DHT22;34086;51.076;13.722;2023-04-01T00:48:57;10.20;99.90
48264;DHT22;34086;51.076;13.722;2023-04-01T00:49:59;10.20;99.90
48264;DHT22;34086;51.076;13.722;2023-04-01T00:51:14;10.20;99.90
48264;DHT22;34086;51.076;13.722;2023-04-01T00:52:18;10.20;99.90
48264;DHT22;34086;51.076;13.722;2023-04-01T00:53:21;10.10;99.90
48264;DHT22;34086;51.076;13.722;2023-04-01T00:54:24;10.10;99.90
48264;DHT22;34086;51.076;13.722;2023-04-01T00:55:28;10.10;99.90
48264;DHT22;34086;51.076;13.722;2023-04-01T00:56:48;10.10;99.90
48264;DHT22;34086;51.076;13.722;2023-04-01T00:57:50;10.10;99.90
48264;DHT22;34086;51.076;13.722;2023-04-01T00:59:05;10.10;99.90
48264;DHT22;34086;51.076;13.722;2023-04-01T01:00:11;10.10;99.90
48264;DHT22;34086;51.076;13.722;2023-04-01T01:01:13;10.10;99.90
48264;DHT22;34086;51.076;13.722;2023-04-01T01:02:14;10.10;99.90
48264;DHT22;34086;51.076;13.722;2023-04-01T01:03:16;10.10;99.90
48264;DHT22;34086;51.076;13.722;2023-04-01T01:04:27;10.10;99.90
48264;DHT22;34086;51.076;13.722;2023-04-01T01:05:46;10.10;99.90
48264;DHT22;34086;51.076;13.722;2023-04-01T01:08:28;10.10;99.90
48264;DHT22;34086;51.076;13.722;2023-04-01T01:10:51;10.10;99.90
48264;DHT22;34086;51.076;13.722;2023-04-01T01:13:10;10.10;99.90
48264;DHT22;34086;51.076;13.722;2023-04-01T01:14:47;10.10;99.90
48264;DHT22;34086;51.076;13.722;2023-04-01T01:16:02;10.10;99.90
48264;DHT22;34086;51.076;13.722;2023-04-01T01:17:12;10.20;99.90
48264;DHT22;34086;51.076;13.722;2023-04-01T01:23:30;10.20;99.90
48264;DHT22;34086;51.076;13.722;2023-04-01T01:25:16;10.20;99.90
48264;DHT22;34086;51.076;13.722;2023-04-01T01:27:32;10.20;99.90
48264;DHT22;34086;51.076;13.722;2023-04-01T01:32:53;10.20;99.90
48264;DHT22;34086;51.076;13.722;2023-04-01T01:34:27;10.20;99.90
48264;DHT22;34086;51.076;13.722;2023-04-01T01:36:32;10.20;99.90
48264;DHT22;34086;51.076;13.722;2023-04-01T01:37:40;10.20;99.90
48264;DHT22;34086;51.076;13.722;2023-04-01T01:38:42;10.20;99.90
48264;DHT22;34086;51.076;13.722;2023-04-01T01:39:47;10.20;99.90
48264;DHT22;34086;51.076;13.722;2023-04-01T01:40:50;10.20;99.90
48264;DHT22;34086;51.076;13.722;2023-04-01T01:41:57;10.20;99.90
48264;DHT22;34086;51.076;13.722;2023-04-01T01:43:04;10.20;99.90
48264;DHT22;34086;51.076;13.722;2023-04-01T01:44:08;10.20;99.90
48264;DHT22;34086;51.076;13.722;2023-04-01T01:45:14;10.20;99.90
48264;DHT22;34086;51.076;13.722;2023-04-01T01:46:21;10.20;99.90
48264;DHT22;34086;51.076;13.722;2023-04-01T01:47:23;10.10;99.90
48264;DHT22;34086;51.076;13.722;2023-04-01T01:48:26;10.10;99.90
48264;DHT22;34086;51.076;13.722;2023-04-01T01:49:28;10.10;99.90
48264;DHT22;34086;51.076;13.722;2023-04-01T01:50:30;10.10;99.90
48264;DHT22;34086;51.076;13.722;2023-04-01T01:51:32;10.10;99.90
48264;DHT22;34086;51.076;13.722;2023-04-01T01:52:34;10.10;99.90
48264;DHT22;34086;51.076;13.722;2023-04-01T01:53:36;10.10;99.90
48264;DHT22;34086;51.076;13.722;2023-04-01T01:54:50;10.10;99.90
48264;DHT22;34086;51.076;13.722;2023-04-01T01:55:51;10.10;99.90
48264;DHT22;34086;51.076;13.722;2023-04-01T01:57:03;10.10;99.90
48264;DHT22;34086;51.076;13.722;2023-04-01T01:58:30;10.10;99.90
48264;DHT22;34086;51.076;13.722;2023-04-01T01:59:33;10.20;99.90
48264;DHT22;34086;51.076;13.722;2023-04-01T02:00:35;10.10;99.90
48264;DHT22;34086;51.076;13.722;2023-04-01T02:01:41;10.10;99.90
48264;DHT22;34086;51.076;13.722;2023-04-01T02:02:48;10.10;99.90
48264;DHT22;34086;51.076;13.722;2023-04-01T02:03:50;10.10;99.90
48264;DHT22;34086;51.076;13.722;2023-04-01T02:04:54;10.20;99.90
48264;DHT22;34086;51.076;13.722;2023-04-01T02:05:57;10.10;99.90
48264;DHT22;34086;51.076;13.722;2023-04-01T02:07:02;10.10;99.90
48264;DHT22;34086;51.076;13.722;2023-04-01T02:08:12;10.10;99.90
48264;DHT22;34086;51.076;13.722;2023-04-01T02:09:14;10.10;99.90
48264;DHT22;34086;51.076;13.722;2023-04-01T02:10:14;10.10;99.90
48264;DHT22;34086;51.076;13.722;2023-04-01T02:11:17;10.10;99.90
48264;DHT22;34086;51.076;13.722;2023-04-01T02:12:24;10.10;99.90
48264;DHT22;34086;51.076;13.722;2023-04-01T02:13:31;10.10;99.90
48264;DHT22;34086;51.076;13.722;2023-04-01T02:14:53;10.10;99.90
48264;DHT22;34086;51.076;13.722;2023-04-01T02:15:58;10.10;99.90
48264;DHT22;34086;51.076;13.722;2023-04-01T02:17:12;10.10;99.90
48264;DHT22;34086;51.076;13.722;2023-04-01T02:18:15;10.10;99.90
48264;DHT22;34086;51.076;13.722;2023-04-01T02:19:16;10.10;99.90
48264;DHT22;34086;51.076;13.722;2023-04-01T02:20:23;10.10;99.90
48264;DHT22;34086;51.076;13.722;2023-04-01T02:21:27;10.10;99.90
48264;DHT22;34086;51.076;13.722;2023-04-01T02:22:35;10.10;99.90
48264;DHT22;34086;51.076;13.722;2023-04-01T02:23:38;10.10;99.90
48264;DHT22;34086;51.076;13.722;2023-04-01T02:24:40;10.10;99.90
48264;DHT22;34086;51.076;13.722;2023-04-01T02:25:43;10.10;99.90
48264;DHT22;34086;51.076;13.722;2023-04-01T02:26:46;10.10;99.90
48264;DHT22;34086;51.076;13.722;2023-04-01T02:27:47;10.10;99.90
48264;DHT22;34086;51.076;13.722;2023-04-01T02:28:48;10.10;99.90
48264;DHT22;34086;51.076;13.722;2023-04-01T02:29:50;10.10;99.90
48264;DHT22;34086;51.076;13.722;2023-04-01T02:30:51;10.10;99.90
48264;DHT22;34086;51.076;13.722;2023-04-01T02:31:53;10.20;99.90
48264;DHT22;34086;51.076;13.722;2023-04-01T02:32:56;10.20;99.90
48264;DHT22;34086;51.076;13.722;2023-04-01T02:33:57;10.10;99.90
48264;DHT22;34086;51.076;13.722;2023-04-01T02:34:58;10.10;99.90
48264;DHT22;34086;51.076;13.722;2023-04-01T02:36:00;10.20;99.90
48264;DHT22;34086;51.076;13.722;2023-04-01T02:37:01;10.20;99.90
48264;DHT22;34086;51.076;13.722;2023-04-01T02:38:02;10.20;99.90
48264;DHT22;34086;51.076;13.722;2023-04-01T02:39:03;10.10;99.90
48264;DHT22;34086;51.076;13.722;2023-04-01T02:40:07;10.20;99.90
48264;DHT22;34086;51.076;13.722;2023-04-01T02:41:08;10.20;99.90
48264;DHT22;34086;51.076;13.722;2023-04-01T02:42:09;10.20;99.90
48264;DHT22;34086;51.076;13.722;2023-04-01T02:43:10;10.20;99.90
48264;DHT22;34086;51.076;13.722;2023-04-01T02:44:13;10.20;99.90
48264;DHT22;34086;51.076;13.722;2023-04-01T02:45:14;10.20;99.90
48264;DHT22;34086;51.076;13.722;2023-04-01T02:46:16;10.10;99.90
48264;DHT22;34086;51.076;13.722;2023-04-01T02:47:16;10.10;99.90
48264;DHT22;34086;51.076;13.722;2023-04-01T02:48:17;10.10;99.90
48264;DHT22;34086;51.076;13.722;2023-04-01T02:49:18;10.10;99.90
48264;DHT22;34086;51.076;13.722;2023-04-01T02:50:19;10.10;99.90
48264;DHT22;34086;51.076;13.722;2023-04-01T02:51:20;10.10;99.90
48264;DHT22;34086;51.076;13.722;2023-04-01T02:52:20;10.10;99.90
48264;DHT22;34086;51.076;13.722;2023-04-01T02:53:21;10.10;99.90
48264;DHT22;34086;51.076;13.722;2023-04-01T02:54:22;10.10;99.90
48264;DHT22;34086;51.076;13.722;2023-04-01T02:55:23;10.10;99.90
48264;DHT22;34086;51.076;13.722;2023-04-01T02:56:23;10.10;99.90
48264;DHT22;34086;51.076;13.722;2023-04-01T02:57:25;10.00;99.90
48264;DHT22;34086;51.076;13.722;2023-04-01T02:58:26;10.00;99.90
48264;DHT22;34086;51.076;13.722;2023-04-01T02:59:26;10.00;99.90
48264;DHT22;34086;51.076;13.722;2023-04-01T03:00:27;10.00;99.90
48264;DHT22;34086;51.076;13.722;2023-04-01T03:01:28;10.00;99.90
48264;DHT22;34086;51.076;13.722;2023-04-01T03:02:28;10.00;99.90
48264;DHT22;34086;51.076;13.722;2023-04-01T03:03:29;10.00;99.90
48264;DHT22;34086;51.076;13.722;2023-04-01T03:04:30;10.00;99.90
48264;DHT22;34086;51.076;13.722;2023-04-01T03:05:30;10.00;99.90
48264;DHT22;34086;51.076;13.722;2023-04-01T03:06:31;10.10;99.90
48264;DHT22;34086;51.076;13.722;2023-04-01T03:07:32;10.00;99.90
48264;DHT22;34086;51.076;13.722;2023-04-01T03:08:32;10.00;99.90
48264;DHT22;34086;51.076;13.722;2023-04-01T03:09:33;10.00;99.90
48264;DHT22;34086;51.076;13.722;2023-04-01T03:10:33;10.10;99.90
48264;DHT22;34086;51.076;13.722;2023-04-01T03:11:34;10.00;99.90
48264;DHT22;34086;51.076;13.722;2023-04-01T03:12:36;10.10;99.90
48264;DHT22;34086;51.076;13.722;2023-04-01T03:13:37;10.10;99.90
48264;DHT22;34086;51.076;13.722;2023-04-01T03:14:38;10.10;99.90
48264;DHT22;34086;51.076;13.722;2023-04-01T03:15:38;10.10;99.90
48264;DHT22;34086;51.076;13.722;2023-04-01T03:16:39;10.10;99.90
48264;DHT22;34086;51.076;13.722;2023-04-01T03:17:41;10.10;99.90
48264;DHT22;34086;51.076;13.722;2023-04-01T03:18:42;10.10;99.90
48264;DHT22;34086;51.076;13.722;2023-04-01T03:19:43;10.10;99.90
48264;DHT22;34086;51.076;13.722;2023-04-01T03:20:45;10.10;99.90
48264;DHT22;34086;51.076;13.722;2023-04-01T03:21:45;10.10;99.90
48264;DHT22;34086;51.076;13.722;2023-04-01T03:22:46;10.10;99.90
48264;DHT22;34086;51.076;13.722;2023-04-01T03:23:47;10.10;99.90
48264;DHT22;34086;51.076;13.722;2023-04-01T03:24:48;10.10;99.90
48264;DHT22;34086;51.076;13.722;2023-04-01T03:25:49;10.10;99.90
48264;DHT22;34086;51.076;13.722;2023-04-01T03:26:49;10.10;99.90
48264;DHT22;34086;51.076;13.722;2023-04-01T03:27:50;10.10;99.90
48264;DHT22;34086;51.076;13.722;2023-04-01T03:28:51;10.10;99.90
48264;DHT22;34086;51.076;13.722;2023-04-01T03:29:51;10.10;99.90
48264;DHT22;34086;51.076;13.722;2023-04-01T03:30:53;10.10;99.90
48264;DHT22;34086;51.076;13.722;2023-04-01T03:31:54;10.00;99.90
48264;DHT22;34086;51.076;13.722;2023-04-01T03:32:54;10.10;99.90
48264;DHT22;34086;51.076;13.722;2023-04-01T03:33:55;10.00;99.90
48264;DHT22;34086;51.076;13.722;2023-04-01T03:34:56;10.00;99.90
48264;DHT22;34086;51.076;13.722;2023-04-01T03:35:57;10.00;99.90
48264;DHT22;34086;51.076;13.722;2023-04-01T03:36:58;10.00;99.90
48264;DHT22;34086;51.076;13.722;2023-04-01T03:37:58;10.00;99.90
48264;DHT22;34086;51.076;13.722;2023-04-01T03:39:00;10.00;99.90
48264;DHT22;34086;51.076;13.722;2023-04-01T03:40:09;10.00;99.90
48264;DHT22;34086;51.076;13.722;2023-04-01T03:41:17;10.00;99.90
48264;DHT22;34086;51.076;13.722;2023-04-01T03:42:18;10.00;99.90
48264;DHT22;34086;51.076;13.722;2023-04-01T03:43:18;10.00;99.90
48264;DHT22;34086;51.076;13.722;2023-04-01T03:44:19;10.00;99.90
48264;DHT22;34086;51.076;13.722;2023-04-01T03:45:23;10.00;99.90
48264;DHT22;34086;51.076;13.722;2023-04-01T03:46:24;10.00;99.90
48264;DHT22;34086;51.076;13.722;2023-04-01T03:47:25;10.00;99.90
48264;DHT22;34086;51.076;13.722;2023-04-01T03:48:26;10.00;99.90
48264;DHT22;34086;51.076;13.722;2023-04-01T03:49:26;10.00;99.90
48264;DHT22;34086;51.076;13.722;2023-04-01T03:50:27;10.00;99.90
48264;DHT22;34086;51.076;13.722;2023-04-01T03:51:28;10.00;99.90
48264;DHT22;34086;51.076;13.722;2023-04-01T03:52:29;10.00;99.90
48264;DHT22;34086;51.076;13.722;2023-04-01T03:53:30;10.00;99.90
48264;DHT22;34086;51.076;13.722;2023-04-01T03:54:33;10.00;99.90
48264;DHT22;34086;51.076;13.722;2023-04-01T03:55:36;10.10;99.90
48264;DHT22;34086;51.076;13.722;2023-04-01T03:56:37;10.00;99.90
48264;DHT22;34086;51.076;13.722;2023-04-01T03:57:37;10.00;99.90
48264;DHT22;34086;51.076;13.722;2023-04-01T03:58:48;10.00;99.90
48264;DHT22;34086;51.076;13.722;2023-04-01T03:59:49;10.00;99.90
48264;DHT22;34086;51.076;13.722;2023-04-01T04:00:50;10.00;99.90
48264;DHT22;34086;51.076;13.722;2023-04-01T04:01:50;10.00;99.90
48264;DHT22;34086;51.076;13.722;2023-04-01T04:02:51;10.00;99.90
48264;DHT22;34086;51.076;13.722;2023-04-01T04:03:56;10.00;99.90
48264;DHT22;34086;51.076;13.722;2023-04-01T04:04:57;10.00;99.90
48264;DHT22;34086;51.076;13.722;2023-04-01T04:05:58;10.00;99.90
48264;DHT22;34086;51.076;13.722;2023-04-01T04:06:59;10.00;99.90
48264;DHT22;34086;51.076;13.722;2023-04-01T04:08:00;10.00;99.90
48264;DHT22;34086;51.076;13.722;2023-04-01T04:09:01;10.00;99.90
48264;DHT22;34086;51.076;13.722;2023-04-01T04:10:05;10.00;99.90
48264;DHT22;34086;51.076;13.722;2023-04-01T04:11:06;10.00;99.90
48264;DHT22;34086;51.076;13.722;2023-04-01T04:12:07;10.00;99.90
48264;DHT22;34086;51.076;13.722;2023-04-01T04:13:08;10.10;99.90
48264;DHT22;34086;51.076;13.722;2023-04-01T04:14:13;10.00;99.90
48264;DHT22;34086;51.076;13.722;2023-04-01T04:15:14;10.00;99.90
48264;DHT22;34086;51.076;13.722;2023-04-01T04:16:16;10.00;99.90
48264;DHT22;34086;51.076;13.722;2023-04-01T04:17:20;10.00;99.90
48264;DHT22;34086;51.076;13.722;2023-04-01T04:18:21;10.00;99.90
48264;DHT22;34086;51.076;13.722;2023-04-01T04:19:22;10.10;99.90
48264;DHT22;34086;51.076;13.722;2023-04-01T04:20:23;10.00;99.90
48264;DHT22;34086;51.076;13.722;2023-04-01T04:21:23;10.00;99.90
48264;DHT22;34086;51.076;13.722;2023-04-01T04:22:24;10.00;99.90
48264;DHT22;34086;51.076;13.722;2023-04-01T04:23:25;10.00;99.90
48264;DHT22;34086;51.076;13.722;2023-04-01T04:24:25;10.00;99.90
48264;DHT22;34086;51.076;13.722;2023-04-01T04:25:34;10.00;99.90
48264;DHT22;34086;51.076;13.722;2023-04-01T04:26:35;10.00;99.90
48264;DHT22;34086;51.076;13.722;2023-04-01T04:27:36;10.00;99.90
48264;DHT22;34086;51.076;13.722;2023-04-01T04:28:41;10.00;99.90
48264;DHT22;34086;51.076;13.722;2023-04-01T04:29:42;10.00;99.90
48264;DHT22;34086;51.076;13.722;2023-04-01T04:30:43;10.00;99.90
48264;DHT22;34086;51.076;13.722;2023-04-01T04:31:44;10.00;99.90
48264;DHT22;34086;51.076;13.722;2023-04-01T04:32:44;10.00;99.90
48264;DHT22;34086;51.076;13.722;2023-04-01T04:33:46;10.00;99.90
48264;DHT22;34086;51.076;13.722;2023-04-01T04:34:47;10.00;99.90
48264;DHT22;34086;51.076;13.722;2023-04-01T04:35:48;10.00;99.90
48264;DHT22;34086;51.076;13.722;2023-04-01T04:36:49;10.00;99.90
48264;DHT22;34086;51.076;13.722;2023-04-01T04:37:50;10.10;99.90
48264;DHT22;34086;51.076;13.722;2023-04-01T04:38:51;10.00;99.90
48264;DHT22;34086;51.076;13.722;2023-04-01T04:39:52;10.00;99.90
48264;DHT22;34086;51.076;13.722;2023-04-01T04:40:54;10.00;99.90
48264;DHT22;34086;51.076;13.722;2023-04-01T04:41:55;10.00;99.90
48264;DHT22;34086;51.076;13.722;2023-04-01T04:42:56;10.10;99.90
48264;DHT22;34086;51.076;13.722;2023-04-01T04:43:57;10.10;99.90
48264;DHT22;34086;51.076;13.722;2023-04-01T04:44:59;10.10;99.90
48264;DHT22;34086;51.076;13.722;2023-04-01T04:46:05;10.00;99.90
48264;DHT22;34086;51.076;13.722;2023-04-01T04:47:05;10.10;99.90
48264;DHT22;34086;51.076;13.722;2023-04-01T04:48:08;10.10;99.90
48264;DHT22;34086;51.076;13.722;2023-04-01T04:49:09;10.10;99.90
48264;DHT22;34086;51.076;13.722;2023-04-01T04:50:10;10.10;99.90
48264;DHT22;34086;51.076;13.722;2023-04-01T04:51:15;10.10;99.90
48264;DHT22;34086;51.076;13.722;2023-04-01T04:52:16;10.10;99.90
48264;DHT22;34086;51.076;13.722;2023-04-01T04:53:18;10.10;99.90
48264;DHT22;34086;51.076;13.722;2023-04-01T04:54:19;10.10;99.90
48264;DHT22;34086;51.076;13.722;2023-04-01T04:55:28;10.10;99.90
48264;DHT22;34086;51.076;13.722;2023-04-01T04:56:51;10.10;99.90
48264;DHT22;34086;51.076;13.722;2023-04-01T04:57:52;10.10;99.90
48264;DHT22;34086;51.076;13.722;2023-04-01T04:58:53;10.10;99.90
48264;DHT22;34086;51.076;13.722;2023-04-01T04:59:58;10.20;99.90
48264;DHT22;34086;51.076;13.722;2023-04-01T05:01:14;10.20;99.90
48264;DHT22;34086;51.076;13.722;2023-04-01T05:02:16;10.20;99.90
48264;DHT22;34086;51.076;13.722;2023-04-01T05:03:16;10.10;99.90
48264;DHT22;34086;51.076;13.722;2023-04-01T05:04:17;10.20;99.90
48264;DHT22;34086;51.076;13.722;2023-04-01T05:05:18;10.10;99.90
48264;DHT22;34086;51.076;13.722;2023-04-01T05:06:20;10.20;99.90
48264;DHT22;34086;51.076;13.722;2023-04-01T05:07:21;10.20;99.90
48264;DHT22;34086;51.076;13.722;2023-04-01T05:08:22;10.20;99.90
48264;DHT22;34086;51.076;13.722;2023-04-01T05:09:22;10.20;99.90
48264;DHT22;34086;51.076;13.722;2023-04-01T05:10:23;10.20;99.90
48264;DHT22;34086;51.076;13.722;2023-04-01T05:11:24;10.20;99.90
48264;DHT22;34086;51.076;13.722;2023-04-01T05:12:26;10.20;99.90
48264;DHT22;34086;51.076;13.722;2023-04-01T05:13:33;10.20;99.90
48264;DHT22;34086;51.076;13.722;2023-04-01T05:14:34;10.20;99.90
48264;DHT22;34086;51.076;13.722;2023-04-01T05:15:42;10.20;99.90
48264;DHT22;34086;51.076;13.722;2023-04-01T05:16:42;10.20;99.90
48264;DHT22;34086;51.076;13.722;2023-04-01T05:17:43;10.20;99.90
48264;DHT22;34086;51.076;13.722;2023-04-01T05:18:44;10.20;99.90
48264;DHT22;34086;51.076;13.722;2023-04-01T05:19:45;10.20;99.90
48264;DHT22;34086;51.076;13.722;2023-04-01T05:20:48;10.20;99.90
48264;DHT22;34086;51.076;13.722;2023-04-01T05:21:49;10.20;99.90
48264;DHT22;34086;51.076;13.722;2023-04-01T05:22:55;10.20;99.90
48264;DHT22;34086;51.076;13.722;2023-04-01T05:23:56;10.20;99.90
48264;DHT22;34086;51.076;13.722;2023-04-01T05:24:58;10.20;99.90
48264;DHT22;34086;51.076;13.722;2023-04-01T05:26:06;10.20;99.90
48264;DHT22;34086;51.076;13.722;2023-04-01T05:27:08;10.20;99.90
48264;DHT22;34086;51.076;13.722;2023-04-01T05:28:12;10.20;99.90
48264;DHT22;34086;51.076;13.722;2023-04-01T05:29:13;10.20;99.90
48264;DHT22;34086;51.076;13.722;2023-04-01T05:30:14;10.20;99.90
48264;DHT22;34086;51.076;13.722;2023-04-01T05:31:27;10.20;99.90
48264;DHT22;34086;51.076;13.722;2023-04-01T05:32:28;10.30;99.90
48264;DHT22;34086;51.076;13.722;2023-04-01T05:33:30;10.20;99.90
48264;DHT22;34086;51.076;13.722;2023-04-01T05:34:30;10.20;99.90
48264;DHT22;34086;51.076;13.722;2023-04-01T05:35:31;10.20;99.90
48264;DHT22;34086;51.076;13.722;2023-04-01T05:36:31;10.30;99.90
48264;DHT22;34086;51.076;13.722;2023-04-01T05:37:36;10.30;99.90
48264;DHT22;34086;51.076;13.722;2023-04-01T05:38:39;10.30;99.90
48264;DHT22;34086;51.076;13.722;2023-04-01T05:39:42;10.30;99.90
48264;DHT22;34086;51.076;13.722;2023-04-01T05:40:43;10.30;99.90
48264;DHT22;34086;51.076;13.722;2023-04-01T05:41:44;10.30;99.90
48264;DHT22;34086;51.076;13.722;2023-04-01T05:42:45;10.30;99.90
48264;DHT22;34086;51.076;13.722;2023-04-01T05:43:46;10.30;99.90
48264;DHT22;34086;51.076;13.722;2023-04-01T05:45:05;10.30;99.90
48264;DHT22;34086;51.076;13.722;2023-04-01T05:46:25;10.30;99.90
48264;DHT22;34086;51.076;13.722;2023-04-01T05:47:32;10.30;99.90
48264;DHT22;34086;51.076;13.722;2023-04-01T05:48:33;10.30;99.90
48264;DHT22;34086;51.076;13.722;2023-04-01T05:49:35;10.40;99.90
48264;DHT22;34086;51.076;13.722;2023-04-01T05:50:40;10.30;99.90
48264;DHT22;34086;51.076;13.722;2023-04-01T05:51:40;10.40;99.90
48264;DHT22;34086;51.076;13.722;2023-04-01T05:52:42;10.40;99.90
48264;DHT22;34086;51.076;13.722;2023-04-01T05:53:44;10.40;99.90
48264;DHT22;34086;51.076;13.722;2023-04-01T05:54:44;10.40;99.90
48264;DHT22;34086;51.076;13.722;2023-04-01T05:55:45;10.30;99.90
48264;DHT22;34086;51.076;13.722;2023-04-01T05:56:47;10.30;99.90
48264;DHT22;34086;51.076;13.722;2023-04-01T05:57:48;10.30;99.90
48264;DHT22;34086;51.076;13.722;2023-04-01T05:58:53;10.30;99.90
48264;DHT22;34086;51.076;13.722;2023-04-01T05:59:57;10.30;99.90
48264;DHT22;34086;51.076;13.722;2023-04-01T06:01:05;10.30;99.90
48264;DHT22;34086;51.076;13.722;2023-04-01T06:02:08;10.30;99.90
48264;DHT22;34086;51.076;13.722;2023-04-01T06:03:10;10.30;99.90
48264;DHT22;34086;51.076;13.722;2023-04-01T06:04:15;10.30;99.90
48264;DHT22;34086;51.076;13.722;2023-04-01T06:05:22;10.40;99.90
48264;DHT22;34086;51.076;13.722;2023-04-01T06:06:26;10.30;99.90
48264;DHT22;34086;51.076;13.722;2023-04-01T06:07:30;10.30;99.90
48264;DHT22;34086;51.076;13.722;2023-04-01T06:08:31;10.40;99.90
48264;DHT22;34086;51.076;13.722;2023-04-01T06:09:32;10.40;99.90
48264;DHT22;34086;51.076;13.722;2023-04-01T06:11:19;10.40;99.90
48264;DHT22;34086;51.076;13.722;2023-04-01T06:13:57;10.40;99.90
48264;DHT22;34086;51.076;13.722;2023-04-01T06:16:51;10.40;99.90
48264;DHT22;34086;51.076;13.722;2023-04-01T06:18:31;10.40;99.90
48264;DHT22;34086;51.076;13.722;2023-04-01T06:22:49;10.50;99.90
48264;DHT22;34086;51.076;13.722;2023-04-01T06:25:36;10.60;99.90
48264;DHT22;34086;51.076;13.722;2023-04-01T06:30:47;10.70;99.90
48264;DHT22;34086;51.076;13.722;2023-04-01T06:33:32;10.80;99.90
48264;DHT22;34086;51.076;13.722;2023-04-01T06:36:32;10.80;99.90
48264;DHT22;34086;51.076;13.722;2023-04-01T06:40:12;10.90;99.90
48264;DHT22;34086;51.076;13.722;2023-04-01T06:41:47;10.90;99.90
48264;DHT22;34086;51.076;13.722;2023-04-01T06:52:13;11.30;99.90
48264;DHT22;34086;51.076;13.722;2023-04-01T06:56:58;11.30;99.90
48264;DHT22;34086;51.076;13.722;2023-04-01T06:58:04;11.20;99.90
48264;DHT22;34086;51.076;13.722;2023-04-01T06:59:12;11.20;99.90
48264;DHT22;34086;51.076;13.722;2023-04-01T07:00:39;11.20;99.90
48264;DHT22;34086;51.076;13.722;2023-04-01T07:03:05;11.30;99.90
48264;DHT22;34086;51.076;13.722;2023-04-01T07:05:30;11.30;99.90
48264;DHT22;34086;51.076;13.722;2023-04-01T07:06:36;11.40;99.90
48264;DHT22;34086;51.076;13.722;2023-04-01T07:07:42;11.40;99.90
48264;DHT22;34086;51.076;13.722;2023-04-01T07:08:46;11.40;99.90
48264;DHT22;34086;51.076;13.722;2023-04-01T07:09:52;11.40;99.90
48264;DHT22;34086;51.076;13.722;2023-04-01T07:11:26;11.40;99.90
48264;DHT22;34086;51.076;13.722;2023-04-01T07:12:50;11.40;99.90
48264;DHT22;34086;51.076;13.722;2023-04-01T07:14:19;11.40;99.90
48264;DHT22;34086;51.076;13.722;2023-04-01T07:15:24;11.50;99.90
48264;DHT22;34086;51.076;13.722;2023-04-01T07:16:44;11.50;99.90
48264;DHT22;34086;51.076;13.722;2023-04-01T07:17:48;11.40;99.90
48264;DHT22;34086;51.076;13.722;2023-04-01T07:18:56;11.50;99.90
48264;DHT22;34086;51.076;13.722;2023-04-01T07:20:22;11.50;99.90
48264;DHT22;34086;51.076;13.722;2023-04-01T07:21:41;11.50;99.90
48264;DHT22;34086;51.076;13.722;2023-04-01T07:22:58;11.50;99.90
48264;DHT22;34086;51.076;13.722;2023-04-01T07:24:11;11.40;99.90
48264;DHT22;34086;51.076;13.722;2023-04-01T07:25:26;11.40;99.90
48264;DHT22;34086;51.076;13.722;2023-04-01T07:26:49;11.40;99.90
48264;DHT22;34086;51.076;13.722;2023-04-01T07:28:03;11.40;99.90